Time;durP1;ratioP1;P1;durP2;ratioP2;P2;SDS_P1;SDS_P2;PMS_P1;PMS_P2;Temp;Humidity;BMP_temperature;BMP_pressure;BME280_temperature;BME280_humidity;BME280_pressure;Samples;Min_cycle;Max_cycle;Signal;HPM_P1;HPM_P2
2022/10/17 00:03:17;;;;;;;4.45;3.72;;;;;;;13.71;100.00;101486.91;10375019;28;20384;-74
2022/10/17 00:08:18;;;;;;;5.57;4.10;;;;;;;13.67;100.00;101502.00;10373974;28;20038;-74
2022/10/17 00:13:18;;;;;;;7.57;4.93;;;;;;;13.66;100.00;101494.03;10376479;28;20112;-74
2022/10/17 00:18:18;;;;;;;7.13;4.07;;;;;;;13.63;100.00;101487.13;10374295;28;20045;-74
2022/10/17 00:23:19;;;;;;;5.68;5.18;;;;;;;13.58;100.00;101481.44;10375343;28;20045;-74
2022/10/17 00:28:19;;;;;;;6.85;5.78;;;;;;;13.57;100.00;101479.75;10374130;28;20029;-74
2022/10/17 00:33:20;;;;;;;7.47;5.32;;;;;;;13.52;100.00;101474.06;10376364;28;20091;-74
2022/10/17 00:38:20;;;;;;;7.03;5.88;;;;;;;13.49;100.00;101478.03;10376264;28;20156;-74
2022/10/17 00:43:20;;;;;;;7.93;6.68;;;;;;;13.49;100.00;101467.16;10375577;28;20058;-74
2022/10/17 00:48:21;;;;;;;7.70;5.88;;;;;;;13.52;100.00;101473.25;10373745;28;20057;-75
2022/10/17 00:53:21;;;;;;;7.03;6.30;;;;;;;13.56;100.00;101479.94;10375366;28;20469;-74
2022/10/17 00:58:22;;;;;;;9.25;7.15;;;;;;;13.61;100.00;101486.47;10357175;28;20107;-74
2022/10/17 01:03:22;;;;;;;8.57;6.05;;;;;;;13.63;100.00;101476.22;10374553;28;20034;-74
2022/10/17 01:08:23;;;;;;;10.73;6.80;;;;;;;13.65;100.00;101465.13;10373295;28;20105;-74
2022/10/17 01:13:36;;;;;;;12.73;8.05;;;;;;;13.62;100.00;101463.66;10375801;28;20077;-74
2022/10/17 01:18:42;;;;;;;12.15;7.60;;;;;;;13.60;100.00;101452.16;10363718;28;20028;-74
2022/10/17 01:24:12;;;;;;;11.80;8.43;;;;;;;13.57;100.00;101447.09;10381293;28;20096;-74
2022/10/17 01:29:20;;;;;;;10.95;8.63;;;;;;;13.54;100.00;101442.06;10381691;28;20109;-74
2022/10/17 01:34:26;;;;;;;11.10;9.63;;;;;;;13.52;100.00;101437.88;10380811;28;20349;-74
2022/10/17 01:39:34;;;;;;;9.82;8.93;;;;;;;13.51;100.00;101426.16;10363508;28;20038;-74
2022/10/17 01:44:48;;;;;;;10.23;8.43;;;;;;;13.51;100.00;101436.19;10365113;28;20030;-74
2022/10/17 01:49:49;;;;;;;9.90;8.90;;;;;;;13.50;100.00;101438.09;10348658;28;20026;-74
2022/10/17 01:54:55;;;;;;;20.60;9.57;;;;;;;13.53;100.00;101418.63;10380493;28;20065;-74
2022/10/17 01:59:56;;;;;;;10.25;9.02;;;;;;;13.58;100.00;101416.13;10378658;28;20397;-74
2022/10/17 02:04:56;;;;;;;14.35;8.95;;;;;;;13.65;100.00;101416.97;10379978;28;20080;-74
2022/10/17 02:09:56;;;;;;;19.17;10.40;;;;;;;13.72;100.00;101414.28;10380020;28;20025;-74
2022/10/17 02:15:09;;;;;;;11.13;8.50;;;;;;;13.82;100.00;101412.00;10395416;28;20046;-74
2022/10/17 02:20:30;;;;;;;14.93;9.45;;;;;;;13.88;100.00;101403.03;10380905;28;20056;-74
2022/10/17 02:25:41;;;;;;;23.83;10.30;;;;;;;13.93;100.00;101392.31;10364205;28;20022;-74
2022/10/17 02:30:49;;;;;;;10.20;8.27;;;;;;;13.96;100.00;101378.28;10379265;28;20113;-74
2022/10/17 02:35:52;;;;;;;13.65;8.32;;;;;;;14.07;100.00;101390.47;10378468;28;20121;-74
2022/10/17 02:40:52;;;;;;;10.35;9.40;;;;;;;14.16;100.00;101402.81;10361672;28;20072;-74
2022/10/17 02:45:53;;;;;;;10.65;9.65;;;;;;;14.25;100.00;101405.34;10379791;28;20061;-74
2022/10/17 02:51:08;;;;;;;15.63;10.25;;;;;;;14.39;100.00;101417.94;10360867;28;20033;-74
2022/10/17 02:56:16;;;;;;;13.30;8.98;;;;;;;14.53;100.00;101425.06;10378981;28;20026;-74
2022/10/17 03:01:17;;;;;;;10.57;8.35;;;;;;;14.70;100.00;101432.81;10377163;28;20064;-74
2022/10/17 03:06:17;;;;;;;10.43;9.38;;;;;;;14.82;100.00;101425.66;10376916;28;20481;-74
2022/10/17 03:11:17;;;;;;;11.68;8.57;;;;;;;14.91;100.00;101418.94;10377509;28;20060;-74
2022/10/17 03:16:18;;;;;;;10.85;9.68;;;;;;;14.94;100.00;101425.84;10377065;28;20034;-74
2022/10/17 03:21:18;;;;;;;9.45;8.43;;;;;;;14.98;100.00;101422.47;10378223;28;20446;-74
2022/10/17 03:26:18;;;;;;;9.70;8.70;;;;;;;15.01;100.00;101421.22;10360707;28;20034;-74
2022/10/17 03:31:19;;;;;;;8.45;7.70;;;;;;;14.98;100.00;101421.63;10376086;28;20095;-74
2022/10/17 03:36:19;;;;;;;10.60;9.00;;;;;;;14.93;100.00;101414.06;10377691;28;20117;-74
2022/10/17 03:41:20;;;;;;;8.40;6.63;;;;;;;14.94;100.00;101421.22;10377459;28;20452;-74
2022/10/17 03:46:20;;;;;;;14.68;8.48;;;;;;;14.99;100.00;101415.94;10376633;28;20069;-74
2022/10/17 03:51:21;;;;;;;11.18;7.22;;;;;;;15.03;100.00;101417.22;10376735;28;20030;-74
2022/10/17 03:56:22;;;;;;;16.15;9.18;;;;;;;15.09;100.00;101426.41;10376810;28;20034;-74
2022/10/17 04:01:22;;;;;;;7.82;6.93;;;;;;;15.07;100.00;101429.38;10359768;28;20084;-74
2022/10/17 04:06:23;;;;;;;10.43;8.07;;;;;;;15.17;100.00;101430.81;10358555;28;20091;-74
2022/10/17 04:11:23;;;;;;;8.85;7.57;;;;;;;15.24;100.00;101429.72;10375620;28;20143;-74
2022/10/17 04:16:24;;;;;;;8.65;7.75;;;;;;;15.34;100.00;101432.81;10376796;28;20037;-74
2022/10/17 04:21:25;;;;;;;12.60;8.18;;;;;;;15.39;100.00;101436.81;10374578;28;20116;-74
2022/10/17 04:26:26;;;;;;;24.05;8.25;;;;;;;15.40;100.00;101446.69;10374562;28;20056;-74
2022/10/17 04:31:26;;;;;;;13.38;6.85;;;;;;;15.42;100.00;101452.78;10374399;28;20172;-74
2022/10/17 04:36:26;;;;;;;9.05;7.63;;;;;;;15.44;100.00;101451.47;10375297;28;20450;-74
2022/10/17 04:41:27;;;;;;;9.68;7.68;;;;;;;15.38;100.00;101449.63;10375283;28;20026;-75
2022/10/17 04:46:27;;;;;;;7.55;6.50;;;;;;;15.30;100.00;101455.31;10373942;28;20109;-75
2022/10/17 04:51:28;;;;;;;9.73;6.80;;;;;;;15.30;100.00;101452.59;10377981;28;20030;-76
2022/10/17 04:56:28;;;;;;;21.10;6.70;;;;;;;15.28;100.00;101454.69;10382657;28;20033;-76
2022/10/17 05:01:28;;;;;;;11.40;6.25;;;;;;;15.35;100.00;101444.59;10382514;28;20033;-76
2022/10/17 05:06:29;;;;;;;11.85;6.70;;;;;;;15.55;100.00;101450.81;10383092;28;20394;-75
2022/10/17 05:11:29;;;;;;;7.20;6.40;;;;;;;15.66;100.00;101489.41;10381488;28;20104;-75
2022/10/17 05:16:29;;;;;;;11.70;8.35;;;;;;;15.70;100.00;101486.06;10383551;28;20539;-74
2022/10/17 05:21:30;;;;;;;9.48;7.15;;;;;;;15.71;100.00;101478.72;10381080;28;20030;-75
2022/10/17 05:26:30;;;;;;;11.70;6.45;;;;;;;15.79;100.00;101472.97;10381607;28;20124;-75
2022/10/17 05:31:31;;;;;;;10.77;6.97;;;;;;;15.83;100.00;101479.69;10363258;28;20076;-75
2022/10/17 05:36:31;;;;;;;11.68;6.10;;;;;;;15.77;100.00;101488.75;10381709;28;20381;-75
2022/10/17 05:41:31;;;;;;;12.70;7.15;;;;;;;15.71;100.00;101490.47;10381451;28;20030;-75
2022/10/17 05:46:32;;;;;;;8.80;6.65;;;;;;;15.69;100.00;101480.81;10380872;28;20042;-75
2022/10/17 05:51:32;;;;;;;9.35;6.70;;;;;;;15.63;100.00;101487.94;10380665;28;20030;-75
2022/10/17 05:56:33;;;;;;;10.30;7.55;;;;;;;15.65;100.00;101477.66;10380252;28;20604;-75
2022/10/17 06:01:33;;;;;;;8.55;7.50;;;;;;;15.73;100.00;101498.41;10379372;28;20065;-75
2022/10/17 06:06:37;;;;;;;10.23;6.93;;;;;;;15.75;100.00;101488.13;10380433;28;20443;-75
2022/10/17 06:11:37;;;;;;;9.35;6.22;;;;;;;15.84;100.00;101500.47;10378393;28;20385;-75
2022/10/17 06:16:38;;;;;;;13.18;8.13;;;;;;;15.88;100.00;101520.84;10346172;28;20061;-75
2022/10/17 06:21:38;;;;;;;20.00;7.70;;;;;;;15.87;100.00;101519.16;10378050;28;20046;-75
2022/10/17 06:26:39;;;;;;;8.27;6.43;;;;;;;15.95;100.00;101516.19;10379572;28;20351;-75
2022/10/17 06:31:39;;;;;;;9.05;7.10;;;;;;;16.04;100.00;101520.31;10379439;28;20073;-75
2022/10/17 06:36:39;;;;;;;13.82;6.85;;;;;;;16.07;100.00;101531.88;10380211;28;20121;-75
2022/10/17 06:41:40;;;;;;;9.13;7.03;;;;;;;16.14;100.00;101524.47;10378398;28;20042;-75
2022/10/17 06:46:40;;;;;;;11.73;7.95;;;;;;;16.21;100.00;101514.38;10379688;28;20037;-75
2022/10/17 06:51:41;;;;;;;8.05;6.28;;;;;;;16.32;100.00;101530.06;10379019;28;20370;-75
2022/10/17 06:56:41;;;;;;;7.50;6.75;;;;;;;16.38;100.00;101537.38;10377976;28;20038;-75
2022/10/17 07:01:42;;;;;;;7.82;6.22;;;;;;;16.42;100.00;101585.06;10377959;28;20412;-75
2022/10/17 07:06:42;;;;;;;9.68;6.63;;;;;;;16.43;100.00;101607.78;10375862;28;20476;-75
2022/10/17 07:11:42;;;;;;;13.98;6.40;;;;;;;16.48;100.00;101614.25;10358973;28;20112;-75
2022/10/17 07:16:44;;;;;;;11.82;7.75;;;;;;;16.53;100.00;101640.97;10377110;28;20054;-75
2022/10/17 07:21:44;;;;;;;8.88;7.00;;;;;;;16.60;100.00;101660.06;10377804;28;20033;-75
2022/10/17 07:26:45;;;;;;;6.70;6.10;;;;;;;16.62;100.00;101679.81;10375761;28;20428;-75
2022/10/17 07:31:47;;;;;;;6.57;6.03;;;;;;;16.69;100.00;101702.50;10375448;28;20034;-75
2022/10/17 07:36:48;;;;;;;9.45;8.35;;;;;;;16.67;100.00;101721.84;10377115;28;20479;-76
2022/10/17 07:41:49;;;;;;;9.80;8.00;;;;;;;16.67;100.00;101721.03;10374973;28;20123;-75
2022/10/17 07:46:50;;;;;;;11.90;8.32;;;;;;;16.63;100.00;101741.66;10376315;28;20064;-76
2022/10/17 07:51:50;;;;;;;10.23;8.35;;;;;;;16.57;100.00;101748.00;10374829;28;20040;-76
2022/10/17 07:56:51;;;;;;;10.40;7.68;;;;;;;16.50;100.00;101758.97;10375714;28;20038;-77
2022/10/17 08:01:54;;;;;;;18.92;7.97;;;;;;;16.49;100.00;101751.78;10374640;28;20207;-77
2022/10/17 08:06:55;;;;;;;11.75;8.20;;;;;;;16.44;100.00;101749.72;10373915;28;20438;-77
2022/10/17 08:11:55;;;;;;;10.60;7.95;;;;;;;16.35;100.00;101750.19;10374297;28;20105;-77
2022/10/17 08:16:55;;;;;;;15.38;9.00;;;;;;;16.32;100.00;101737.78;10357618;28;20072;-77
2022/10/17 08:21:57;;;;;;;10.20;7.32;;;;;;;16.31;100.00;101716.13;10374742;28;20049;-76
2022/10/17 08:26:59;;;;;;;7.88;7.13;;;;;;;16.28;100.00;101736.53;10375234;28;20042;-76
2022/10/17 08:31:59;;;;;;;8.77;7.55;;;;;;;16.26;100.00;101731.25;10374246;28;20041;-75
2022/10/17 08:37:00;;;;;;;13.18;7.90;;;;;;;16.30;100.00;101704.34;10375334;28;20034;-75
2022/10/17 08:42:18;;;;;;;10.57;9.45;;;;;;;16.31;100.00;101706.03;10374845;28;20046;-75
2022/10/17 08:47:27;;;;;;;15.13;8.48;;;;;;;16.35;100.00;101722.84;10375207;28;20057;-74
2022/10/17 08:52:33;;;;;;;9.15;7.65;;;;;;;16.40;100.00;101733.94;10373911;28;20042;-74
2022/10/17 08:57:33;;;;;;;14.65;9.55;;;;;;;16.43;100.00;101759.00;10375006;28;20096;-74
2022/10/17 09:02:58;;;;;;;8.48;7.57;;;;;;;16.46;100.00;101764.03;10340505;28;20042;-74
2022/10/17 09:08:13;;;;;;;7.25;6.65;;;;;;;16.52;100.00;101762.31;10374744;28;20026;-74
2022/10/17 09:13:39;;;;;;;9.07;6.57;;;;;;;16.59;100.00;101754.94;10372786;28;20107;-73
2022/10/17 09:18:41;;;;;;;13.00;8.38;;;;;;;16.68;100.00;101745.41;10373461;28;20038;-73
2022/10/17 09:23:56;;;;;;;25.75;9.02;;;;;;;16.80;100.00;101753.81;10372612;28;20576;-73
2022/10/17 09:28:58;;;;;;;12.68;8.25;;;;;;;16.79;100.00;101779.50;10372072;28;20030;-73
2022/10/17 09:34:00;;;;;;;9.63;7.35;;;;;;;16.70;100.00;101798.00;10372405;28;20398;-73
2022/10/17 09:39:04;;;;;;;8.77;6.88;;;;;;;16.62;100.00;101824.75;10375102;28;20041;-73
2022/10/17 09:44:24;;;;;;;15.43;8.13;;;;;;;16.57;100.00;101830.03;10380020;28;20135;-73
2022/10/17 09:49:42;;;;;;;10.63;8.05;;;;;;;16.56;100.00;101823.72;10380477;28;20149;-74
2022/10/17 09:54:44;;;;;;;10.75;8.13;;;;;;;16.50;100.00;101835.53;10379408;28;20036;-74
2022/10/17 10:00:06;;;;;;;12.15;7.43;;;;;;;16.49;100.00;101842.84;10380429;28;20056;-73
2022/10/17 10:05:20;;;;;;;9.75;7.00;;;;;;;16.48;100.00;101860.31;10378032;28;20532;-73
2022/10/17 10:10:25;;;;;;;8.10;6.65;;;;;;;16.54;100.00;101872.31;10378327;28;20107;-73
2022/10/17 10:15:29;;;;;;;9.48;6.85;;;;;;;16.47;100.00;101868.75;10381088;28;20054;-73
2022/10/17 10:20:33;;;;;;;16.17;5.97;;;;;;;16.46;100.00;101884.31;10379374;28;20034;-73
2022/10/17 10:25:34;;;;;;;7.93;6.68;;;;;;;16.41;100.00;101889.56;10377736;28;20060;-73
2022/10/17 10:30:34;;;;;;;5.90;5.03;;;;;;;16.41;100.00;101891.47;10377302;28;20379;-73
2022/10/17 10:35:35;;;;;;;5.43;4.13;;;;;;;16.36;100.00;101910.41;10377124;28;20037;-73
2022/10/17 10:40:43;;;;;;;5.65;3.85;;;;;;;16.13;100.00;101919.03;10377025;28;20088;-73
2022/10/17 10:45:43;;;;;;;4.55;3.00;;;;;;;16.01;100.00;101922.34;10362090;28;20400;-73
2022/10/17 10:50:46;;;;;;;7.57;4.05;;;;;;;15.97;100.00;101926.56;10360535;28;20029;-73
2022/10/17 10:55:53;;;;;;;5.25;3.70;;;;;;;15.90;100.00;101935.81;10377858;28;20033;-73
2022/10/17 11:00:54;;;;;;;4.72;3.30;;;;;;;15.83;100.00;101922.16;10377796;28;20401;-73
2022/10/17 11:05:57;;;;;;;6.03;3.13;;;;;;;15.80;100.00;101917.09;10377450;28;20132;-73
2022/10/17 11:11:31;;;;;;;2.50;2.30;;;;;;;15.93;100.00;101911.66;10377423;28;20061;-73
2022/10/17 11:16:38;;;;;;;7.38;2.85;;;;;;;16.25;100.00;101937.31;10354160;28;20179;-73
2022/10/17 11:22:01;;;;;;;2.80;2.60;;;;;;;16.49;100.00;101946.75;10360415;28;20026;-73
2022/10/17 11:27:05;;;;;;;4.60;3.00;;;;;;;16.68;100.00;101960.63;10376709;28;20088;-73
2022/10/17 11:32:39;;;;;;;3.17;2.60;;;;;;;16.89;100.00;101990.53;10375934;28;20092;-73
2022/10/17 11:37:40;;;;;;;4.93;2.80;;;;;;;17.17;100.00;102006.69;10376337;28;20033;-74
2022/10/17 11:43:00;;;;;;;3.53;3.15;;;;;;;17.27;100.00;102006.22;10359445;28;20121;-74
2022/10/17 11:48:04;;;;;;;4.28;3.80;;;;;;;17.42;100.00;102004.09;10375707;28;20030;-75
2022/10/17 11:53:33;;;;;;;11.95;3.63;;;;;;;17.51;100.00;102006.56;10358936;28;20037;-75
2022/10/17 11:59:04;;;;;;;5.20;3.15;;;;;;;17.65;100.00;102002.72;10373062;28;20041;-75
2022/10/17 12:04:35;;;;;;;2.97;2.78;;;;;;;17.72;100.00;102014.47;10371302;28;20133;-75
2022/10/17 12:10:09;;;;;;;3.45;3.10;;;;;;;17.77;100.00;102014.72;10376535;28;20034;-74
2022/10/17 12:15:12;;;;;;;3.45;3.15;;;;;;;17.90;100.00;102016.53;10375389;28;20474;-74
2022/10/17 12:20:27;;;;;;;2.35;2.15;;;;;;;17.92;100.00;102030.00;10375044;28;20034;-74
2022/10/17 12:25:30;;;;;;;2.00;1.90;;;;;;;17.99;100.00;102036.28;10375484;28;20057;-74
2022/10/17 12:30:31;;;;;;;3.25;2.95;;;;;;;17.87;100.00;102033.44;10373298;28;20045;-74
2022/10/17 12:35:32;;;;;;;4.13;2.85;;;;;;;17.71;100.00;102051.16;10341401;28;20473;-74
2022/10/17 12:40:35;;;;;;;2.70;2.45;;;;;;;17.46;100.00;102058.41;10357243;28;20032;-74
2022/10/17 12:45:47;;;;;;;3.13;2.90;;;;;;;17.29;100.00;102047.06;10376382;28;20084;-74
2022/10/17 12:50:59;;;;;;;4.63;3.08;;;;;;;17.28;100.00;102051.69;10375630;28;20034;-74
2022/10/17 12:55:59;;;;;;;10.00;3.80;;;;;;;17.31;100.00;102062.22;10373706;28;20026;-73
2022/10/17 13:01:00;;;;;;;5.07;3.65;;;;;;;17.32;100.00;102058.44;10374729;28;20101;-74
2022/10/17 13:06:02;;;;;;;7.80;4.28;;;;;;;17.41;100.00;102065.34;10357116;28;20038;-74
2022/10/17 13:11:02;;;;;;;11.55;3.28;;;;;;;17.53;100.00;102072.94;10372487;28;20120;-74
2022/10/17 13:16:03;;;;;;;4.38;2.42;;;;;;;17.48;100.00;102089.16;10364689;28;20041;-74
2022/10/17 13:21:13;;;;;;;11.15;2.92;;;;;;;17.50;100.00;102087.03;10381439;28;20371;-74
2022/10/17 13:26:18;;;;;;;3.70;2.67;;;;;;;17.52;100.00;102087.69;10367063;28;20436;-74
2022/10/17 13:31:26;;;;;;;2.55;2.17;;;;;;;17.48;100.00;102084.50;10379978;28;20164;-74
2022/10/17 13:36:27;;;;;;;4.60;3.00;;;;;;;17.57;100.00;102080.47;10380371;28;20121;-74
2022/10/17 13:41:28;;;;;;;4.93;2.58;;;;;;;17.60;100.00;102088.28;10363513;28;20041;-74
2022/10/17 13:46:32;;;;;;;2.35;2.15;;;;;;;17.77;100.00;102091.44;10379615;28;20030;-74
2022/10/17 13:51:32;;;;;;;5.00;2.67;;;;;;;17.87;100.00;102089.06;10382056;28;20022;-74
2022/10/17 13:56:33;;;;;;;4.50;1.85;;;;;;;18.03;100.00;102093.22;10381533;28;20042;-74
2022/10/17 14:01:33;;;;;;;3.97;2.53;;;;;;;18.23;100.00;102098.59;10381899;28;20051;-74
2022/10/17 14:06:33;;;;;;;4.60;2.42;;;;;;;18.28;100.00;102120.72;10363859;28;20492;-74
2022/10/17 14:11:39;;;;;;;9.00;2.38;;;;;;;18.24;100.00;102137.81;10361637;28;20124;-73
2022/10/17 14:16:40;;;;;;;4.90;3.00;;;;;;;18.09;100.00;102133.47;10378672;28;20087;-74
2022/10/17 14:21:41;;;;;;;2.67;2.45;;;;;;;17.94;100.00;102121.09;10378013;28;20385;-74
2022/10/17 14:26:52;;;;;;;8.15;2.50;;;;;;;17.96;100.00;102135.41;10360631;28;20045;-74
2022/10/17 14:32:07;;;;;;;3.53;3.15;;;;;;;17.91;100.00;102135.22;10361772;28;20034;-74
2022/10/17 14:37:27;;;;;;;6.20;2.08;;;;;;;17.92;100.00;102140.47;10379413;28;20033;-73
2022/10/17 14:42:28;;;;;;;2.25;2.13;;;;;;;17.84;100.00;102133.34;10347171;28;20038;-73
2022/10/17 14:47:28;;;;;;;6.78;3.83;;;;;;;17.87;100.00;102141.13;10377118;28;20092;-74
2022/10/17 14:52:29;;;;;;;9.85;2.38;;;;;;;17.88;100.00;102150.19;10361010;28;20029;-74
2022/10/17 14:57:33;;;;;;;10.05;2.85;;;;;;;17.89;100.00;102155.44;10361826;28;20030;-74
2022/10/17 15:02:33;;;;;;;7.70;2.95;;;;;;;17.80;100.00;102153.16;10377614;28;20179;-74
2022/10/17 15:07:34;;;;;;;2.72;2.53;;;;;;;17.73;100.00;102164.09;10376154;28;20531;-74
2022/10/17 15:12:34;;;;;;;5.20;2.30;;;;;;;17.62;100.00;102156.56;10377632;28;20107;-73
2022/10/17 15:17:34;;;;;;;11.98;2.88;;;;;;;17.52;100.00;102173.44;10377850;28;20048;-73
2022/10/17 15:22:35;;;;;;;2.03;1.92;;;;;;;17.38;100.00;102193.66;10377379;28;20386;-74
2022/10/17 15:27:35;;;;;;;5.05;2.95;;;;;;;17.24;100.00;102183.75;10377957;28;20037;-74
2022/10/17 15:32:36;;;;;;;4.80;3.05;;;;;;;17.13;100.00;102201.63;10358825;28;20034;-73
2022/10/17 15:37:37;;;;;;;7.53;3.55;;;;;;;17.09;100.00;102208.59;10377422;28;20038;-73
2022/10/17 15:42:37;;;;;;;6.10;2.55;;;;;;;17.04;100.00;102208.34;10376280;28;20037;-74
2022/10/17 15:47:37;;;;;;;5.53;3.33;;;;;;;16.96;100.00;102206.69;10358555;28;20076;-73
2022/10/17 15:52:38;;;;;;;3.75;2.88;;;;;;;16.82;100.00;102203.09;10374743;28;20065;-74
2022/10/17 15:57:40;;;;;;;11.57;3.10;;;;;;;16.74;100.00;102205.97;10358980;28;20042;-73
2022/10/17 16:02:41;;;;;;;7.40;3.25;;;;;;;16.65;100.00;102215.41;10358136;28;20029;-74
2022/10/17 16:07:47;;;;;;;4.65;2.25;;;;;;;16.58;100.00;102222.75;10357829;28;20038;-73
2022/10/17 16:12:48;;;;;;;9.85;2.67;;;;;;;16.47;100.00;102227.78;10342621;28;20053;-73
2022/10/17 16:17:49;;;;;;;2.88;1.92;;;;;;;16.40;100.00;102243.31;10359207;28;20038;-73
2022/10/17 16:22:50;;;;;;;5.10;3.42;;;;;;;16.30;100.00;102241.97;10358703;28;20097;-73
2022/10/17 16:27:52;;;;;;;12.73;3.35;;;;;;;16.22;100.00;102243.84;10374554;28;20387;-73
2022/10/17 16:32:52;;;;;;;9.98;3.22;;;;;;;16.16;100.00;102260.22;10341477;28;20105;-74
2022/10/17 16:37:53;;;;;;;4.63;3.35;;;;;;;16.06;100.00;102259.72;10374034;28;20205;-73
2022/10/17 16:42:53;;;;;;;6.65;2.92;;;;;;;16.01;100.00;102263.88;10374705;28;20037;-73
2022/10/17 16:47:54;;;;;;;4.68;2.50;;;;;;;15.95;100.00;102266.56;10379895;28;20045;-73
2022/10/17 16:52:54;;;;;;;3.28;2.47;;;;;;;15.88;100.00;102269.28;10382578;28;20041;-73
2022/10/17 16:57:55;;;;;;;2.67;2.15;;;;;;;15.85;100.00;102275.13;10382718;28;20440;-73
2022/10/17 17:02:55;;;;;;;2.92;2.25;;;;;;;15.84;100.00;102286.28;10381897;28;20068;-73
2022/10/17 17:07:55;;;;;;;3.33;2.30;;;;;;;15.77;100.00;102292.53;10381071;28;20048;-73
2022/10/17 17:12:56;;;;;;;8.27;2.83;;;;;;;15.74;100.00;102305.72;10382167;28;20457;-73
2022/10/17 17:17:56;;;;;;;3.75;2.42;;;;;;;15.72;100.00;102302.34;10381834;28;20473;-73
2022/10/17 17:22:56;;;;;;;1.80;1.70;;;;;;;15.67;100.00;102299.38;10380493;28;20030;-73
2022/10/17 17:27:57;;;;;;;5.55;2.53;;;;;;;15.64;100.00;102303.31;10364928;28;20030;-73
2022/10/17 17:32:58;;;;;;;7.88;2.60;;;;;;;15.61;100.00;102314.63;10379920;28;20429;-73
2022/10/17 17:38:01;;;;;;;7.75;3.20;;;;;;;15.60;100.00;102315.63;10380771;28;20042;-73
2022/10/17 17:43:02;;;;;;;5.93;2.00;;;;;;;15.59;100.00;102333.91;10378534;28;20030;-73
2022/10/17 17:48:02;;;;;;;12.57;4.00;;;;;;;15.53;100.00;102331.13;10346935;28;20053;-73
2022/10/17 17:53:03;;;;;;;4.38;3.95;;;;;;;15.63;100.00;102326.16;10381006;28;20371;-72
2022/10/17 17:58:04;;;;;;;6.65;3.13;;;;;;;15.74;100.00;102330.31;10377777;28;20445;-73
2022/10/17 18:03:04;;;;;;;3.78;3.10;;;;;;;15.81;100.00;102329.31;10378999;28;20092;-73
2022/10/17 18:08:05;;;;;;;4.60;2.17;;;;;;;15.70;100.00;102320.84;10381062;28;20069;-73
2022/10/17 18:13:05;;;;;;;3.63;3.03;;;;;;;15.61;100.00;102333.75;10362948;28;20464;-73
2022/10/17 18:18:05;;;;;;;5.65;3.58;;;;;;;15.53;100.00;102336.59;10380082;28;20038;-73
2022/10/17 18:23:06;;;;;;;6.47;3.60;;;;;;;15.46;100.00;102341.97;10377463;28;20072;-73
2022/10/17 18:28:07;;;;;;;5.85;3.20;;;;;;;15.40;100.00;102350.94;10379951;28;20049;-73
2022/10/17 18:33:08;;;;;;;16.55;3.85;;;;;;;15.40;100.00;102363.75;10379186;28;20045;-73
2022/10/17 18:38:08;;;;;;;17.73;3.80;;;;;;;15.40;100.00;102369.22;10379367;28;20367;-72
2022/10/17 18:43:09;;;;;;;15.85;3.38;;;;;;;15.37;100.00;102361.41;10377545;28;20121;-72
2022/10/17 18:48:09;;;;;;;8.82;3.80;;;;;;;15.34;100.00;102368.09;10379242;28;20046;-73
2022/10/17 18:53:09;;;;;;;5.93;2.95;;;;;;;15.33;100.00;102380.06;10360549;28;20040;-73
2022/10/17 18:58:10;;;;;;;11.60;3.63;;;;;;;15.34;100.00;102382.59;10377324;28;20034;-73
2022/10/17 19:03:11;;;;;;;12.38;3.70;;;;;;;15.32;100.00;102392.03;10378392;28;20044;-74
2022/10/17 19:08:12;;;;;;;5.38;3.35;;;;;;;15.30;100.00;102383.19;10377159;28;20157;-74
2022/10/17 19:13:13;;;;;;;12.85;4.05;;;;;;;15.26;100.00;102395.53;10376029;28;20153;-73
2022/10/17 19:18:13;;;;;;;9.57;3.08;;;;;;;15.21;100.00;102389.78;10359736;28;20145;-73
2022/10/17 19:23:13;;;;;;;15.90;3.50;;;;;;;15.16;100.00;102389.53;10377108;28;20045;-74
2022/10/17 19:28:14;;;;;;;4.25;3.90;;;;;;;15.14;100.00;102395.16;10375679;28;20394;-74
2022/10/17 19:33:14;;;;;;;5.45;2.85;;;;;;;15.09;100.00;102383.97;10378012;28;20084;-73
2022/10/17 19:38:15;;;;;;;5.53;3.90;;;;;;;15.04;100.00;102397.34;10375672;28;20037;-74
2022/10/17 19:43:15;;;;;;;12.45;4.20;;;;;;;15.00;100.00;102399.63;10375086;28;20133;-73
2022/10/17 19:48:15;;;;;;;3.97;3.50;;;;;;;14.95;100.00;102406.69;10375481;28;20038;-74
2022/10/17 19:53:18;;;;;;;14.93;3.67;;;;;;;14.91;100.00;102421.75;10375873;28;20080;-73
2022/10/17 19:58:18;;;;;;;4.78;3.97;;;;;;;14.91;100.00;102427.19;10375228;28;20030;-73
2022/10/17 20:03:19;;;;;;;3.42;2.97;;;;;;;14.88;100.00;102417.50;10374261;28;20030;-73
2022/10/17 20:08:19;;;;;;;8.13;3.65;;;;;;;14.89;100.00;102417.28;10375491;28;20045;-73
2022/10/17 20:13:19;;;;;;;6.82;4.38;;;;;;;14.88;100.00;102420.22;10359220;28;20062;-73
2022/10/17 20:18:20;;;;;;;6.50;4.63;;;;;;;14.86;100.00;102434.03;10374798;28;20137;-75
2022/10/17 20:23:21;;;;;;;5.97;3.95;;;;;;;14.85;100.00;102436.97;10357474;28;20042;-73
2022/10/17 20:28:21;;;;;;;11.57;4.18;;;;;;;14.85;100.00;102445.16;10374013;28;20113;-73
2022/10/17 20:33:21;;;;;;;13.85;4.97;;;;;;;14.80;100.00;102442.13;10341132;28;20164;-72
2022/10/17 20:38:22;;;;;;;10.52;3.90;;;;;;;14.79;100.00;102460.38;10356627;28;20537;-72
2022/10/17 20:43:22;;;;;;;9.93;4.43;;;;;;;14.79;100.00;102460.38;10374868;28;20049;-72
2022/10/17 20:48:23;;;;;;;9.48;4.70;;;;;;;14.86;100.00;102471.38;10358231;28;20049;-72
2022/10/17 20:53:23;;;;;;;14.02;4.13;;;;;;;14.86;100.00;102466.75;10373980;28;20428;-73
2022/10/17 20:58:23;;;;;;;6.03;4.55;;;;;;;14.88;100.00;102475.63;10373714;28;20033;-73
2022/10/17 21:03:24;;;;;;;10.82;4.63;;;;;;;14.86;100.00;102476.84;10374923;28;20377;-73
2022/10/17 21:08:24;;;;;;;11.20;5.13;;;;;;;14.82;100.00;102476.38;10374906;28;20072;-72
2022/10/17 21:13:25;;;;;;;12.95;5.07;;;;;;;14.79;100.00;102484.91;10374297;28;20088;-73
2022/10/17 21:18:26;;;;;;;11.38;5.20;;;;;;;14.74;100.00;102490.09;10374200;28;20034;-72
2022/10/17 21:23:27;;;;;;;12.80;4.70;;;;;;;14.67;100.00;102508.22;10372908;28;20084;-72
2022/10/17 21:28:27;;;;;;;6.75;4.72;;;;;;;14.64;100.00;102505.88;10373922;28;20088;-72
2022/10/17 21:33:27;;;;;;;6.03;5.00;;;;;;;14.63;100.00;102521.38;10376908;28;20041;-72
2022/10/17 21:38:28;;;;;;;5.50;3.83;;;;;;;14.60;100.00;102516.28;10380784;28;20041;-72
2022/10/17 21:43:28;;;;;;;9.40;4.85;;;;;;;14.63;100.00;102521.38;10380458;28;20100;-72
2022/10/17 21:48:29;;;;;;;5.93;3.90;;;;;;;14.64;100.00;102530.41;10380301;28;20436;-73
2022/10/17 21:53:29;;;;;;;4.95;4.03;;;;;;;14.63;100.00;102517.81;10381201;28;20034;-73
2022/10/17 21:58:30;;;;;;;10.57;5.15;;;;;;;14.61;100.00;102503.50;10379370;28;20108;-73
2022/10/17 22:03:34;;;;;;;7.88;4.15;;;;;;;14.60;100.00;102510.84;10380299;28;20061;-72
2022/10/17 22:08:35;;;;;;;7.45;5.28;;;;;;;14.57;100.00;102521.28;10378841;28;20049;-73
2022/10/17 22:13:35;;;;;;;15.02;5.63;;;;;;;14.52;100.00;102530.03;10363039;28;20549;-73
2022/10/17 22:18:36;;;;;;;5.25;4.10;;;;;;;14.52;100.00;102537.34;10379765;28;20034;-73
2022/10/17 22:23:37;;;;;;;10.00;4.93;;;;;;;14.53;100.00;102534.44;10362034;28;20034;-73
2022/10/17 22:28:37;;;;;;;8.32;5.00;;;;;;;14.53;100.00;102544.50;10380010;28;20080;-73
2022/10/17 22:33:38;;;;;;;15.75;5.65;;;;;;;14.50;100.00;102534.75;10361470;28;20088;-73
2022/10/17 22:38:38;;;;;;;15.90;5.60;;;;;;;14.49;100.00;102534.97;10378945;28;20386;-72
2022/10/17 22:43:39;;;;;;;10.15;4.82;;;;;;;14.40;100.00;102543.19;10376976;28;20034;-73
2022/10/17 22:48:39;;;;;;;17.35;5.13;;;;;;;14.35;100.00;102550.22;10379718;28;20037;-73
2022/10/17 22:53:39;;;;;;;7.95;4.28;;;;;;;14.26;100.00;102549.41;10363052;28;20033;-72